Time;durP1;ratioP1;P1;durP2;ratioP2;P2;SDS_P1;SDS_P2;PMS_P1;PMS_P2;Temp;Humidity;BMP_temperature;BMP_pressure;BME280_temperature;BME280_humidity;BME280_pressure;Samples;Min_cycle;Max_cycle;Signal;HPM_P1;HPM_P2
2023/12/07 00:01:34;;;;;;;80.30;37.53;;;;;;;0.71;100.00;101699.44;4905819;29;20031;-83
2023/12/07 00:04:00;;;;;;;82.60;35.83;;;;;;;0.69;100.00;101698.59;4922365;29;20039;-83
2023/12/07 00:06:26;;;;;;;78.88;36.65;;;;;;;0.74;100.00;101703.88;4924800;29;20027;-82
2023/12/07 00:08:52;;;;;;;80.35;35.00;;;;;;;0.62;100.00;101696.09;4934822;29;20485;-83
2023/12/07 00:11:17;;;;;;;91.22;35.70;;;;;;;0.61;100.00;101691.59;4948151;29;20030;-83
2023/12/07 00:13:42;;;;;;;73.88;34.53;;;;;;;0.48;100.00;101696.44;4936550;29;20098;-83
2023/12/07 00:16:08;;;;;;;79.38;36.10;;;;;;;0.51;100.00;101693.66;4953394;28;20068;-83
2023/12/07 00:18:33;;;;;;;75.75;34.22;;;;;;;0.43;100.00;101696.53;4947415;28;20038;-83
2023/12/07 00:20:59;;;;;;;73.32;33.22;;;;;;;0.33;100.00;101703.06;4938370;29;20551;-83
2023/12/07 00:23:24;;;;;;;75.80;34.15;;;;;;;0.15;100.00;101689.09;4932903;28;20505;-83
2023/12/07 00:25:50;;;;;;;66.82;31.70;;;;;;;0.08;100.00;101690.16;4938064;29;20118;-82
2023/12/07 00:28:16;;;;;;;67.28;32.65;;;;;;;-0.02;100.00;101684.09;4931827;29;20089;-82
2023/12/07 00:30:42;;;;;;;66.10;32.72;;;;;;;0.24;100.00;101693.38;4955446;28;20042;-83
2023/12/07 00:33:07;;;;;;;69.57;33.00;;;;;;;0.13;100.00;101690.03;4937170;29;20448;-83
2023/12/07 00:35:33;;;;;;;68.57;31.00;;;;;;;-0.04;100.00;101687.72;4906057;29;20489;-83
2023/12/07 00:37:58;;;;;;;69.13;32.28;;;;;;;0.08;100.00;101679.38;4905821;29;20523;-82
2023/12/07 00:40:24;;;;;;;94.88;36.53;;;;;;;0.18;100.00;101683.63;4936279;28;20031;-82
2023/12/07 00:42:50;;;;;;;87.97;36.08;;;;;;;0.16;100.00;101677.41;4936690;29;20043;-82
2023/12/07 00:45:15;;;;;;;85.50;35.90;;;;;;;0.10;100.00;101680.22;4923554;29;20038;-82
2023/12/07 00:47:41;;;;;;;83.40;36.95;;;;;;;0.24;100.00;101682.59;4938650;28;20038;-83
2023/12/07 00:50:08;;;;;;;79.25;36.15;;;;;;;0.25;100.00;101675.41;4935359;29;20064;-83
2023/12/07 00:52:33;;;;;;;84.45;37.97;;;;;;;0.32;100.00;101688.69;4952949;28;20031;-82
2023/12/07 00:54:58;;;;;;;79.45;37.55;;;;;;;0.28;100.00;101687.00;4953739;29;20066;-83
2023/12/07 00:57:24;;;;;;;84.45;36.38;;;;;;;0.25;100.00;101684.38;4942470;29;20395;-82
2023/12/07 00:59:49;;;;;;;104.60;39.67;;;;;;;0.16;100.00;101680.09;4924669;29;20049;-83
2023/12/07 01:02:14;;;;;;;88.97;37.47;;;;;;;0.23;100.00;101683.53;4937735;29;20233;-83
2023/12/07 01:04:40;;;;;;;106.47;38.17;;;;;;;0.09;100.00;101681.13;4951343;28;20031;-83
2023/12/07 01:07:05;;;;;;;86.18;36.28;;;;;;;-0.05;100.00;101689.53;4957280;28;20039;-82
2023/12/07 01:09:31;;;;;;;78.10;35.50;;;;;;;-0.05;100.00;101691.31;4954318;28;20401;-82
2023/12/07 01:11:57;;;;;;;71.13;34.30;;;;;;;-0.13;100.00;101680.72;4935829;29;20070;-83
2023/12/07 01:14:24;;;;;;;73.00;33.72;;;;;;;-0.19;100.00;101694.31;4952371;28;20038;-83
2023/12/07 01:16:50;;;;;;;80.45;36.28;;;;;;;-0.25;100.00;101687.22;4952473;28;20031;-82
2023/12/07 01:19:16;;;;;;;82.72;38.67;;;;;;;-0.07;100.00;101691.34;4951616;28;20035;-83
2023/12/07 01:21:42;;;;;;;91.75;41.03;;;;;;;-0.10;100.00;101690.53;4919952;29;20482;-82
2023/12/07 01:24:08;;;;;;;93.97;41.00;;;;;;;-0.03;100.00;101690.38;4941339;29;20043;-82
2023/12/07 01:26:33;;;;;;;95.45;42.33;;;;;;;0.03;100.00;101696.53;4952983;29;20027;-82
2023/12/07 01:28:59;;;;;;;103.05;41.78;;;;;;;0.04;100.00;101691.13;4952457;28;20042;-82
2023/12/07 01:31:24;;;;;;;116.15;43.40;;;;;;;0.12;100.00;101710.69;4954466;28;20378;-82
2023/12/07 01:33:50;;;;;;;106.53;42.53;;;;;;;0.09;100.00;101710.75;4935643;29;20039;-83
2023/12/07 01:36:15;;;;;;;118.97;43.20;;;;;;;0.04;100.00;101706.41;4953073;28;20035;-82
2023/12/07 01:38:43;;;;;;;118.63;44.63;;;;;;;0.03;100.00;101713.56;4921784;29;20031;-83
2023/12/07 01:41:08;;;;;;;114.53;41.28;;;;;;;-0.02;100.00;101704.72;4945915;29;20106;-82
2023/12/07 01:43:34;;;;;;;132.77;43.58;;;;;;;-0.01;100.00;101712.75;4934995;29;20481;-82
2023/12/07 01:46:00;;;;;;;123.95;43.50;;;;;;;-0.03;100.00;101705.66;4954621;28;20069;-83
2023/12/07 01:48:26;;;;;;;111.88;42.15;;;;;;;-0.06;100.00;101706.59;4950580;28;20054;-83
2023/12/07 01:50:53;;;;;;;101.07;41.75;;;;;;;-0.12;100.00;101722.84;4937129;29;20078;-83
2023/12/07 01:53:21;;;;;;;99.03;40.30;;;;;;;-0.11;100.00;101721.06;4950498;28;20071;-83
2023/12/07 01:55:47;;;;;;;103.03;40.70;;;;;;;-0.19;100.00;101719.41;4937057;28;20489;-83
2023/12/07 01:58:17;;;;;;;100.63;40.13;;;;;;;-0.10;100.00;101720.13;4934681;29;20047;-82
2023/12/07 02:00:42;;;;;;;109.30;40.88;;;;;;;-0.12;100.00;101714.78;4920415;29;20039;-83
2023/12/07 02:03:08;;;;;;;99.97;39.63;;;;;;;-0.15;100.00;101720.22;4957126;28;20515;-83
2023/12/07 02:05:34;;;;;;;89.22;38.28;;;;;;;-0.19;100.00;101721.22;4957843;28;20043;-82
2023/12/07 02:08:01;;;;;;;101.82;40.22;;;;;;;-0.21;100.00;101717.69;4957800;28;20027;-83
2023/12/07 02:10:26;;;;;;;98.05;37.08;;;;;;;-0.30;100.00;101713.34;4910727;29;20039;-83
2023/12/07 02:12:55;;;;;;;91.68;34.92;;;;;;;-0.44;100.00;101712.75;4910943;29;20085;-83
2023/12/07 02:15:21;;;;;;;81.88;35.67;;;;;;;-0.40;100.00;101722.53;4941524;29;20027;-83
2023/12/07 02:17:50;;;;;;;82.68;34.30;;;;;;;-0.54;100.00;101727.28;4957561;28;20043;-83
2023/12/07 02:20:24;;;;;;;187.13;36.78;;;;;;;-0.56;100.00;101719.25;4958593;28;20396;-83
2023/12/07 02:22:54;;;;;;;82.78;33.50;;;;;;;-0.69;100.00;101717.69;4958795;28;20031;-83
2023/12/07 02:25:29;;;;;;;127.97;37.50;;;;;;;-0.58;100.00;101718.41;4957788;28;20055;-83
2023/12/07 02:27:54;;;;;;;199.60;39.53;;;;;;;-0.66;100.00;101717.66;4957921;28;20516;-82
2023/12/07 02:30:20;;;;;;;114.38;36.53;;;;;;;-0.65;100.00;101728.38;4937989;29;20035;-82
2023/12/07 02:32:46;;;;;;;86.72;36.80;;;;;;;-0.61;100.00;101726.50;4957235;29;20046;-82
2023/12/07 02:35:12;;;;;;;131.88;38.47;;;;;;;-0.60;100.00;101726.50;4958002;28;20170;-83
2023/12/07 02:37:47;;;;;;;118.80;39.03;;;;;;;-0.48;100.00;101727.16;4955616;28;20027;-83
2023/12/07 02:40:17;;;;;;;141.00;39.92;;;;;;;-0.35;100.00;101734.09;4958407;29;20039;-85
2023/12/07 02:42:43;;;;;;;118.20;40.25;;;;;;;-0.41;100.00;101724.34;4962939;28;20054;-85
2023/12/07 02:45:10;;;;;;;216.23;46.72;;;;;;;-0.23;100.00;101730.25;4960313;28;20062;-86
2023/12/07 02:47:36;;;;;;;217.95;45.33;;;;;;;-0.15;100.00;101732.81;4954537;28;20497;-86
2023/12/07 02:50:06;;;;;;;316.83;46.83;;;;;;;-0.19;100.00;101716.72;4959377;28;20027;-85
2023/12/07 02:52:33;;;;;;;271.83;45.97;;;;;;;-0.19;100.00;101714.03;4940041;29;20473;-86
2023/12/07 02:54:58;;;;;;;218.45;45.28;;;;;;;-0.09;100.00;101720.09;4938853;29;20113;-84
2023/12/07 02:57:24;;;;;;;308.77;45.45;;;;;;;-0.13;100.00;101715.72;4943027;29;20114;-86
2023/12/07 02:59:49;;;;;;;424.38;43.50;;;;;;;-0.17;100.00;101718.50;4926260;29;20027;-86
2023/12/07 03:02:14;;;;;;;253.80;42.70;;;;;;;-0.14;100.00;101715.75;4960057;29;20039;-86
2023/12/07 03:04:40;;;;;;;228.13;38.33;;;;;;;-0.22;100.00;101715.91;4958009;28;20035;-85
2023/12/07 03:07:05;;;;;;;228.48;36.50;;;;;;;-0.31;100.00;101698.16;4962286;28;20519;-87
2023/12/07 03:09:31;;;;;;;325.17;41.13;;;;;;;-0.22;100.00;101708.69;4942946;29;20041;-86
2023/12/07 03:11:58;;;;;;;389.65;42.38;;;;;;;-0.19;100.00;101715.84;4928745;28;20058;-86
2023/12/07 03:14:23;;;;;;;287.33;40.22;;;;;;;-0.21;100.00;101704.22;4962896;28;20117;-85
2023/12/07 03:16:49;;;;;;;272.60;37.30;;;;;;;-0.20;100.00;101705.97;4961790;28;20041;-86
2023/12/07 03:19:14;;;;;;;249.77;39.58;;;;;;;-0.23;100.00;101706.94;4934098;29;20481;-86
2023/12/07 03:21:40;;;;;;;270.00;40.17;;;;;;;-0.28;100.00;101711.53;4907895;29;20560;-86
2023/12/07 03:24:10;;;;;;;255.38;37.72;;;;;;;-0.32;100.00;101715.19;4955332;29;20058;-86
2023/12/07 03:26:36;;;;;;;333.80;40.60;;;;;;;-0.39;100.00;101719.81;4935983;29;20032;-86
2023/12/07 03:29:01;;;;;;;226.32;37.97;;;;;;;-0.38;100.00;101720.69;4952946;29;20404;-86
2023/12/07 03:31:27;;;;;;;293.20;39.60;;;;;;;-0.35;100.00;101723.31;4935739;29;20113;-84
2023/12/07 03:33:55;;;;;;;244.43;38.10;;;;;;;-0.44;100.00;101721.72;4940873;29;20042;-85
2023/12/07 03:36:20;;;;;;;235.77;40.47;;;;;;;-0.39;100.00;101724.31;4907192;29;20035;-85
2023/12/07 03:38:46;;;;;;;307.77;40.22;;;;;;;-0.37;100.00;101726.03;4938983;29;20034;-85
2023/12/07 03:41:11;;;;;;;310.63;37.80;;;;;;;-0.45;100.00;101719.06;4960200;28;20126;-85
2023/12/07 03:43:37;;;;;;;265.77;36.10;;;;;;;-0.53;100.00;101729.06;4937778;29;20042;-85
2023/12/07 03:46:06;;;;;;;232.77;34.42;;;;;;;-0.54;100.00;101721.91;4950831;28;20174;-85
2023/12/07 03:48:34;;;;;;;191.48;33.67;;;;;;;-0.48;100.00;101722.66;4955328;28;20117;-85
2023/12/07 03:51:00;;;;;;;276.88;39.25;;;;;;;-0.43;100.00;101722.59;4950285;29;20027;-85
2023/12/07 03:53:25;;;;;;;272.33;40.50;;;;;;;-0.45;100.00;101730.69;4938347;29;20461;-85
2023/12/07 03:55:52;;;;;;;406.02;39.00;;;;;;;-0.44;100.00;101728.91;4922810;29;20031;-86
2023/12/07 03:58:18;;;;;;;275.77;36.60;;;;;;;-0.46;100.00;101728.94;4955452;28;20019;-85
2023/12/07 04:00:44;;;;;;;356.98;37.80;;;;;;;-0.53;100.00;101724.56;4955386;29;20552;-85
2023/12/07 04:03:10;;;;;;;207.55;31.90;;;;;;;-0.56;100.00;101740.75;4939431;29;20035;-86
2023/12/07 04:05:35;;;;;;;253.20;36.15;;;;;;;-0.57;100.00;101745.25;4921273;29;20031;-86
2023/12/07 04:08:00;;;;;;;261.25;34.33;;;;;;;-0.54;100.00;101743.41;4939267;29;20034;-86
2023/12/07 04:10:26;;;;;;;174.07;33.58;;;;;;;-0.51;100.00;101741.56;4954784;29;20485;-86
2023/12/07 04:12:52;;;;;;;262.88;35.78;;;;;;;-0.46;100.00;101750.44;4939963;29;20031;-86
2023/12/07 04:15:18;;;;;;;222.98;32.63;;;;;;;-0.51;100.00;101757.69;4923168;29;20031;-86
2023/12/07 04:17:44;;;;;;;204.60;33.92;;;;;;;-0.47;100.00;101772.00;4943065;29;20042;-86
2023/12/07 04:20:10;;;;;;;209.68;32.83;;;;;;;-0.48;100.00;101779.16;4947200;29;20035;-86
2023/12/07 04:22:36;;;;;;;196.63;34.45;;;;;;;-0.37;100.00;101766.41;4939232;29;20126;-86
2023/12/07 04:25:01;;;;;;;215.38;33.55;;;;;;;-0.40;100.00;101761.06;4928118;29;20074;-86
2023/12/07 04:27:26;;;;;;;304.08;35.72;;;;;;;-0.45;100.00;101771.03;4955817;28;20493;-87
2023/12/07 04:29:52;;;;;;;226.65;33.70;;;;;;;-0.38;100.00;101767.34;4935211;29;20508;-86
2023/12/07 04:32:17;;;;;;;186.55;32.30;;;;;;;-0.41;100.00;101758.41;4935102;29;20039;-87
2023/12/07 04:34:43;;;;;;;236.05;34.42;;;;;;;-0.42;100.00;101768.28;4939098;29;20113;-86
2023/12/07 04:37:08;;;;;;;191.40;28.98;;;;;;;-0.34;100.00;101768.16;4939003;29;20381;-86
2023/12/07 04:39:34;;;;;;;225.63;31.85;;;;;;;-0.28;100.00;101777.91;4926511;29;20511;-86
2023/12/07 04:42:00;;;;;;;217.10;31.40;;;;;;;-0.38;100.00;101767.34;4938396;29;20050;-86
2023/12/07 04:44:26;;;;;;;225.32;28.85;;;;;;;-0.35;100.00;101773.56;4937523;29;20035;-86
2023/12/07 04:46:51;;;;;;;163.10;25.35;;;;;;;-0.47;100.00;101774.69;4938226;29;20549;-86
2023/12/07 04:49:17;;;;;;;238.52;26.60;;;;;;;-0.42;100.00;101775.50;4924167;29;20035;-86
2023/12/07 04:51:46;;;;;;;176.77;25.42;;;;;;;-0.39;100.00;101775.44;4953902;28;20023;-86
2023/12/07 04:54:19;;;;;;;249.88;29.33;;;;;;;-0.41;100.00;101769.16;4934094;28;20572;-85
2023/12/07 04:56:44;;;;;;;251.85;31.52;;;;;;;-0.43;100.00;101762.94;4928263;29;20497;-85
2023/12/07 04:59:10;;;;;;;226.15;27.75;;;;;;;-0.33;100.00;101769.03;4953458;29;20066;-84
2023/12/07 05:01:36;;;;;;;219.45;26.48;;;;;;;-0.41;100.00;101766.47;4940694;28;20761;-85
2023/12/07 05:04:03;;;;;;;163.20;25.92;;;;;;;-0.32;100.00;101774.38;4938319;29;20412;-87
2023/12/07 05:06:29;;;;;;;193.07;26.90;;;;;;;-0.31;100.00;101765.41;4922069;29;20134;-85
2023/12/07 05:08:55;;;;;;;254.45;31.38;;;;;;;-0.16;100.00;101763.31;4953500;28;20449;-85
2023/12/07 05:11:20;;;;;;;202.20;28.70;;;;;;;-0.16;100.00;101768.69;4929256;28;20031;-85
2023/12/07 05:13:45;;;;;;;205.13;27.75;;;;;;;-0.25;100.00;101764.38;4949536;28;20038;-86
2023/12/07 05:16:11;;;;;;;213.18;26.65;;;;;;;-0.23;100.00;101755.38;4952721;29;20038;-84
2023/12/07 05:18:36;;;;;;;269.95;25.90;;;;;;;-0.42;100.00;101752.16;4924630;29;20097;-86
2023/12/07 05:21:02;;;;;;;346.33;24.08;;;;;;;-0.41;100.00;101755.72;4954365;29;20043;-85
2023/12/07 05:23:27;;;;;;;281.40;19.67;;;;;;;-0.44;100.00;101747.72;4954495;28;20024;-85
2023/12/07 05:25:54;;;;;;;171.38;20.85;;;;;;;-0.47;100.00;101745.97;4928069;29;20051;-86
2023/12/07 05:28:19;;;;;;;156.25;19.75;;;;;;;-0.42;100.00;101740.50;4908341;29;20465;-85
2023/12/07 05:30:45;;;;;;;215.90;23.40;;;;;;;-0.46;100.00;101745.06;4939143;29;20477;-85
2023/12/07 05:33:11;;;;;;;229.30;20.80;;;;;;;-0.37;100.00;101757.44;4940197;29;20039;-90
2023/12/07 05:35:37;;;;;;;270.63;23.52;;;;;;;-0.28;100.00;101748.31;4948492;29;20091;-87
2023/12/07 05:38:02;;;;;;;232.13;20.20;;;;;;;-0.40;100.00;101747.63;4952589;28;20126;-86
2023/12/07 05:40:28;;;;;;;266.73;22.50;;;;;;;-0.39;100.00;101748.53;4938240;29;20053;-87
2023/12/07 05:42:55;;;;;;;265.52;21.02;;;;;;;-0.37;100.00;101744.88;4940400;28;20035;-88
2023/12/07 05:45:20;;;;;;;259.65;23.88;;;;;;;-0.34;100.00;101745.72;4945613;28;20418;-86
2023/12/07 05:47:46;;;;;;;185.52;20.42;;;;;;;-0.33;100.00;101742.13;4952673;29;20035;-85
2023/12/07 05:50:11;;;;;;;189.80;18.33;;;;;;;-0.24;100.00;101750.91;4922571;28;20127;-84
2023/12/07 05:52:37;;;;;;;280.90;22.50;;;;;;;-0.21;100.00;101745.47;4935153;29;20027;-84
2023/12/07 05:55:03;;;;;;;251.30;21.92;;;;;;;-0.16;100.00;101744.47;4929574;29;20472;-85
2023/12/07 05:57:28;;;;;;;200.85;19.52;;;;;;;-0.28;100.00;101738.44;4931608;29;21302;-85
2023/12/07 05:59:53;;;;;;;281.67;21.77;;;;;;;-0.27;100.00;101742.00;4936155;29;20035;-85
2023/12/07 06:02:19;;;;;;;207.95;19.48;;;;;;;-0.24;100.00;101733.88;4920969;29;20035;-84
2023/12/07 06:04:44;;;;;;;239.32;20.98;;;;;;;-0.34;100.00;101733.19;4936211;28;20054;-84
2023/12/07 06:07:11;;;;;;;233.23;18.95;;;;;;;-0.29;100.00;101728.59;4951140;29;20520;-85
2023/12/07 06:09:36;;;;;;;207.85;20.02;;;;;;;-0.29;100.00;101725.91;4935633;29;20031;-83
2023/12/07 06:12:02;;;;;;;379.40;21.67;;;;;;;-0.30;100.00;101721.44;4916559;29;20038;-83
2023/12/07 06:14:27;;;;;;;296.52;22.60;;;;;;;-0.20;100.00;101723.03;4948212;29;20027;-83
2023/12/07 06:16:52;;;;;;;278.80;19.98;;;;;;;-0.28;100.00;101726.78;4931176;29;20183;-83
2023/12/07 06:19:18;;;;;;;260.10;17.95;;;;;;;-0.30;100.00;101728.63;4934457;29;20559;-83
2023/12/07 06:21:44;;;;;;;280.60;19.35;;;;;;;-0.24;100.00;101726.69;4951041;28;20050;-83
2023/12/07 06:24:09;;;;;;;255.75;19.60;;;;;;;-0.23;100.00;101727.56;4935559;29;20035;-83
2023/12/07 06:26:35;;;;;;;285.00;22.00;;;;;;;-0.20;100.00;101727.50;4932972;29;20474;-83
2023/12/07 06:29:01;;;;;;;253.43;21.35;;;;;;;-0.23;100.00;101723.09;4934848;29;20019;-83
2023/12/07 06:31:26;;;;;;;294.35;20.45;;;;;;;-0.20;100.00;101730.19;4919085;29;20023;-83
2023/12/07 06:33:52;;;;;;;306.80;22.27;;;;;;;-0.16;100.00;101733.72;4916840;29;20048;-84
2023/12/07 06:36:21;;;;;;;270.60;21.27;;;;;;;-0.13;100.00;101739.03;4917401;29;20039;-83
2023/12/07 06:38:47;;;;;;;285.90;22.02;;;;;;;-0.16;100.00;101742.69;4965105;28;20031;-83
2023/12/07 06:41:14;;;;;;;408.88;25.13;;;;;;;-0.13;100.00;101744.41;4903163;29;20552;-83
2023/12/07 06:43:39;;;;;;;268.15;20.58;;;;;;;-0.13;100.00;101745.31;4954002;28;20045;-83
2023/12/07 06:46:04;;;;;;;343.10;23.10;;;;;;;-0.08;100.00;101742.50;4918722;29;20122;-84
2023/12/07 06:48:30;;;;;;;264.55;20.83;;;;;;;-0.05;100.00;101737.06;4918204;28;20031;-84
2023/12/07 06:50:55;;;;;;;295.73;20.73;;;;;;;-0.11;100.00;101739.91;4921700;28;20532;-82
2023/12/07 06:53:21;;;;;;;248.18;21.40;;;;;;;-0.08;100.00;101731.75;4926861;29;20038;-83
2023/12/07 06:55:46;;;;;;;173.70;19.27;;;;;;;-0.07;100.00;101736.22;4939265;29;20035;-83
2023/12/07 06:58:12;;;;;;;247.95;21.40;;;;;;;-0.12;100.00;101732.75;4907067;29;20062;-83
2023/12/07 07:00:37;;;;;;;282.05;18.85;;;;;;;-0.07;100.00;101737.09;4954903;28;20541;-84
2023/12/07 07:03:02;;;;;;;408.05;24.80;;;;;;;-0.10;100.00;101722.81;4920587;29;20540;-83
2023/12/07 07:05:28;;;;;;;361.15;22.05;;;;;;;-0.01;100.00;101734.28;4939577;29;20035;-83
2023/12/07 07:07:55;;;;;;;225.68;20.88;;;;;;;-0.03;100.00;101728.06;4953440;28;20132;-83
2023/12/07 07:10:21;;;;;;;309.25;22.63;;;;;;;0.04;100.00;101730.63;4952514;29;20031;-83
2023/12/07 07:12:46;;;;;;;265.35;20.73;;;;;;;0.05;100.00;101729.69;4938892;29;20023;-83
2023/12/07 07:15:12;;;;;;;175.73;19.08;;;;;;;0.09;100.00;101728.72;4953443;28;20035;-83
2023/12/07 07:17:37;;;;;;;408.20;24.63;;;;;;;0.09;100.00;101724.22;4953692;29;20039;-83
2023/12/07 07:20:03;;;;;;;346.48;22.08;;;;;;;0.05;100.00;101718.91;4939679;29;20493;-85
2023/12/07 07:22:28;;;;;;;328.08;21.45;;;;;;;0.04;100.00;101720.72;4954758;29;20093;-85
2023/12/07 07:24:54;;;;;;;344.98;22.25;;;;;;;0.06;100.00;101726.09;4952601;28;20533;-85
2023/12/07 07:27:20;;;;;;;362.88;23.05;;;;;;;0.03;100.00;101718.94;4922277;29;20528;-84
2023/12/07 07:29:46;;;;;;;362.58;24.67;;;;;;;0.06;100.00;101728.78;4954224;29;20035;-84
2023/12/07 07:32:11;;;;;;;329.27;23.20;;;;;;;0.07;100.00;101730.56;4938460;29;20023;-83
2023/12/07 07:34:37;;;;;;;268.92;21.55;;;;;;;0.04;100.00;101739.59;4929814;29;20035;-84
2023/12/07 07:37:02;;;;;;;375.55;24.10;;;;;;;0.02;100.00;101735.13;4964721;28;20042;-84
2023/12/07 07:39:28;;;;;;;397.83;26.10;;;;;;;0.03;100.00;101732.41;4963612;28;20371;-85
2023/12/07 07:41:54;;;;;;;480.85;29.25;;;;;;;0.03;100.00;101723.47;4972671;28;20039;-88
2023/12/07 07:44:19;;;;;;;453.05;25.77;;;;;;;0.13;100.00;101725.94;4947312;29;20422;-86
2023/12/07 07:46:46;;;;;;;280.92;21.90;;;;;;;0.09;100.00;101737.66;4950602;29;20054;-88
2023/12/07 07:49:11;;;;;;;360.02;27.48;;;;;;;0.18;100.00;101750.03;4934466;28;20039;-90
2023/12/07 07:51:38;;;;;;;319.70;23.15;;;;;;;0.21;100.00;101749.97;4964238;28;20023;-90
2023/12/07 07:54:04;;;;;;;276.02;23.73;;;;;;;0.23;100.00;101755.34;4957876;29;20031;-89
2023/12/07 07:56:29;;;;;;;270.15;22.88;;;;;;;0.36;100.00;101746.97;4929300;29;20094;-86
2023/12/07 07:58:54;;;;;;;344.08;23.08;;;;;;;0.29;100.00;101745.31;4957308;29;20031;-86
2023/12/07 08:01:21;;;;;;;241.35;22.30;;;;;;;0.32;100.00;101760.53;4956100;28;20064;-87
2023/12/07 08:03:46;;;;;;;272.13;23.52;;;;;;;0.46;100.00;101744.06;4954717;28;20043;-87
2023/12/07 08:06:12;;;;;;;361.83;26.08;;;;;;;0.46;100.00;101736.88;4921355;29;20073;-87
2023/12/07 08:08:37;;;;;;;311.00;24.92;;;;;;;0.57;100.00;101744.69;4938968;29;20036;-87
2023/12/07 08:11:05;;;;;;;337.33;26.70;;;;;;;0.49;100.00;101731.41;4950615;28;20473;-87
2023/12/07 08:13:30;;;;;;;311.23;25.25;;;;;;;0.58;100.00;101743.78;4929494;29;20066;-85
2023/12/07 08:15:55;;;;;;;317.90;25.00;;;;;;;0.54;100.00;101734.88;4958781;28;20485;-84
2023/12/07 08:18:22;;;;;;;226.23;25.08;;;;;;;0.57;100.00;101733.91;4937848;29;20120;-85
2023/12/07 08:20:47;;;;;;;269.90;26.42;;;;;;;0.59;100.00;101729.41;4955902;28;20050;-87
2023/12/07 08:23:13;;;;;;;242.23;26.60;;;;;;;0.67;100.00;101723.81;4937004;29;20027;-85
2023/12/07 08:25:40;;;;;;;259.52;27.77;;;;;;;0.61;100.00;101723.94;4920504;29;20565;-87
2023/12/07 08:28:05;;;;;;;286.17;27.17;;;;;;;0.69;100.00;101730.06;4937777;29;20174;-86
2023/12/07 08:30:30;;;;;;;168.00;25.58;;;;;;;0.73;100.00;101735.31;4905579;29;20113;-85
2023/12/07 08:32:56;;;;;;;162.13;25.63;;;;;;;0.73;100.00;101731.75;4936848;29;20068;-84
2023/12/07 08:35:21;;;;;;;212.43;26.65;;;;;;;0.76;100.00;101736.19;4951258;28;20035;-84
2023/12/07 08:37:48;;;;;;;207.73;27.38;;;;;;;0.85;100.00;101736.84;4922172;29;20031;-85
2023/12/07 08:40:15;;;;;;;144.30;25.25;;;;;;;0.87;100.00;101736.78;4918611;29;20035;-82
2023/12/07 08:42:46;;;;;;;182.50;28.50;;;;;;;0.91;100.00;101741.19;4905985;28;20039;-83
2023/12/07 08:45:13;;;;;;;142.25;28.98;;;;;;;0.97;100.00;101734.75;4940196;29;20396;-83
2023/12/07 08:47:39;;;;;;;115.57;26.35;;;;;;;0.97;100.00;101735.66;4954984;28;20094;-83
2023/12/07 08:50:05;;;;;;;160.07;29.70;;;;;;;1.08;100.00;101732.69;4955791;28;20031;-83
2023/12/07 08:52:32;;;;;;;138.00;29.90;;;;;;;1.10;100.00;101731.72;4939009;28;20054;-83
2023/12/07 08:54:58;;;;;;;118.55;27.10;;;;;;;1.09;100.00;101724.56;4906682;29;20161;-84
2023/12/07 08:57:23;;;;;;;122.32;27.98;;;;;;;1.15;100.00;101722.63;4953243;28;20118;-83
2023/12/07 08:59:48;;;;;;;115.28;27.33;;;;;;;1.26;100.00;101725.91;4937153;29;20102;-84
2023/12/07 09:02:14;;;;;;;101.20;26.98;;;;;;;1.26;100.00;101707.94;4936144;29;20031;-83
2023/12/07 09:04:39;;;;;;;102.78;27.92;;;;;;;1.33;100.00;101715.84;4934071;29;20157;-83
2023/12/07 09:07:05;;;;;;;99.03;27.73;;;;;;;1.31;100.00;101718.59;4919154;29;20378;-83
2023/12/07 09:09:31;;;;;;;121.55;28.10;;;;;;;1.41;100.00;101728.22;4901813;29;20039;-84
2023/12/07 09:11:57;;;;;;;105.85;26.75;;;;;;;1.37;100.00;101717.56;4949526;28;20061;-83
2023/12/07 09:14:22;;;;;;;96.30;25.77;;;;;;;1.45;100.00;101724.50;4935187;28;20522;-84
2023/12/07 09:16:48;;;;;;;90.75;26.63;;;;;;;1.47;100.00;101716.38;4954099;28;20050;-84
2023/12/07 09:19:13;;;;;;;96.82;25.48;;;;;;;1.56;100.00;101712.53;4920680;29;20031;-83
2023/12/07 09:21:40;;;;;;;89.28;25.30;;;;;;;1.58;100.00;101711.56;4938145;29;20135;-84
2023/12/07 09:24:06;;;;;;;81.30;25.40;;;;;;;1.50;100.00;101708.19;4952480;28;20507;-84
2023/12/07 09:26:32;;;;;;;84.75;25.60;;;;;;;1.55;100.00;101702.69;4949625;29;20039;-83
2023/12/07 09:28:57;;;;;;;75.18;23.00;;;;;;;1.47;100.00;101705.56;4930670;29;20054;-83
2023/12/07 09:31:22;;;;;;;69.70;23.30;;;;;;;1.54;100.00;101714.38;4956884;28;20023;-84
2023/12/07 09:33:48;;;;;;;79.55;24.33;;;;;;;1.60;100.00;101722.31;4954428;28;20544;-84
2023/12/07 09:36:18;;;;;;;72.70;21.98;;;;;;;1.61;100.00;101722.28;4934676;29;20028;-83
2023/12/07 09:38:43;;;;;;;67.95;21.60;;;;;;;1.60;100.00;101715.09;4951488;28;20023;-84
2023/12/07 09:41:09;;;;;;;63.65;21.92;;;;;;;1.55;100.00;101708.06;4950561;28;20099;-84
2023/12/07 09:43:34;;;;;;;63.15;22.63;;;;;;;1.63;100.00;101703.34;4940351;29;20027;-84
2023/12/07 09:46:00;;;;;;;64.97;22.70;;;;;;;1.63;100.00;101698.81;4953056;29;20453;-83
2023/12/07 09:48:25;;;;;;;69.80;23.52;;;;;;;1.70;100.00;101690.56;4919470;29;20065;-84
2023/12/07 09:50:52;;;;;;;61.15;22.23;;;;;;;1.74;100.00;101705.72;4935639;29;20082;-83
2023/12/07 09:53:17;;;;;;;58.88;22.30;;;;;;;1.78;100.00;101696.63;4935921;29;20031;-83
2023/12/07 09:55:43;;;;;;;44.92;18.40;;;;;;;1.74;100.00;101681.44;4948052;28;20045;-84
2023/12/07 09:58:10;;;;;;;63.45;23.52;;;;;;;1.83;100.00;101678.47;4943769;28;20035;-85
2023/12/07 10:00:36;;;;;;;63.97;22.80;;;;;;;1.98;100.00;101671.72;4951246;29;20039;-84
2023/12/07 10:03:02;;;;;;;66.07;24.05;;;;;;;1.94;100.00;101673.63;4953298;28;20110;-84
2023/12/07 10:05:28;;;;;;;63.53;24.88;;;;;;;1.95;100.00;101663.72;4939337;29;20114;-84
2023/12/07 10:07:53;;;;;;;75.55;25.27;;;;;;;1.97;100.00;101660.06;4949272;29;20039;-84
2023/12/07 10:10:19;;;;;;;61.20;24.90;;;;;;;2.03;100.00;101667.06;4949165;28;20033;-84
2023/12/07 10:12:51;;;;;;;67.88;25.85;;;;;;;2.03;100.00;101656.25;4947339;28;20042;-84
2023/12/07 10:15:18;;;;;;;73.78;26.25;;;;;;;2.09;100.00;101657.91;4931958;29;20031;-83
2023/12/07 10:17:55;;;;;;;70.38;27.05;;;;;;;2.19;100.00;101640.47;4951184;29;20043;-84
2023/12/07 10:20:25;;;;;;;73.90;28.02;;;;;;;2.20;100.00;101639.56;4951203;29;20027;-84
2023/12/07 10:23:07;;;;;;;65.70;26.73;;;;;;;2.26;100.00;101625.81;4947296;28;20119;-84
2023/12/07 10:25:35;;;;;;;73.75;28.27;;;;;;;2.68;100.00;101628.06;4952558;28;20094;-84
2023/12/07 10:28:03;;;;;;;78.63;27.60;;;;;;;2.73;100.00;101617.97;4954548;28;20077;-84
2023/12/07 10:30:29;;;;;;;74.05;28.35;;;;;;;2.95;100.00;101611.81;4956050;29;20470;-83
2023/12/07 10:32:54;;;;;;;60.88;25.33;;;;;;;2.67;100.00;101601.06;4921367;29;20079;-84
2023/12/07 10:35:20;;;;;;;52.83;23.10;;;;;;;2.78;100.00;101600.72;4905200;28;20019;-83
2023/12/07 10:37:46;;;;;;;55.20;24.65;;;;;;;2.70;100.00;101596.44;4929875;29;20518;-84
2023/12/07 10:40:12;;;;;;;50.88;22.83;;;;;;;2.89;100.00;101594.00;4935160;29;20032;-84
2023/12/07 10:42:41;;;;;;;51.85;22.90;;;;;;;2.81;100.00;101593.38;4937824;29;20382;-83
2023/12/07 10:45:07;;;;;;;47.47;21.08;;;;;;;3.05;100.00;101593.44;4937803;29;20581;-83
2023/12/07 10:47:35;;;;;;;44.05;20.33;;;;;;;3.09;100.00;101582.44;4935940;29;20039;-84
2023/12/07 10:50:06;;;;;;;44.67;19.98;;;;;;;3.16;100.00;101576.81;4952140;28;20035;-84
2023/12/07 10:52:34;;;;;;;44.38;20.50;;;;;;;3.37;100.00;101570.59;4953765;28;20109;-83
2023/12/07 10:55:07;;;;;;;40.13;19.60;;;;;;;3.47;100.00;101572.00;4954498;29;20038;-84